createdAt,value
2023-08-13T00:00:43.086Z,32.90
2023-08-13T00:03:09.730Z,32.00
2023-08-13T00:05:36.488Z,33.25
2023-08-13T00:08:02.925Z,32.95
2023-08-13T00:10:29.395Z,32.40
2023-08-13T00:12:55.906Z,32.47
2023-08-13T00:15:22.620Z,32.38
2023-08-13T00:17:49.083Z,32.58
2023-08-13T00:20:16.202Z,32.67
2023-08-13T00:22:42.892Z,32.85
2023-08-13T00:25:09.711Z,31.73
2023-08-13T00:27:36.185Z,32.00
2023-08-13T00:30:02.687Z,32.75
2023-08-13T00:32:29.174Z,32.70
2023-08-13T00:34:55.854Z,33.10
2023-08-13T00:37:22.356Z,32.00
2023-08-13T00:39:48.837Z,32.42
2023-08-13T00:42:15.583Z,32.95
2023-08-13T00:44:42.280Z,32.92
2023-08-13T00:47:10.503Z,33.40
2023-08-13T00:49:36.984Z,32.80
2023-08-13T00:52:03.607Z,33.15
2023-08-13T00:54:30.918Z,33.03
2023-08-13T00:56:57.640Z,33.08
2023-08-13T00:59:25.060Z,33.45
2023-08-13T01:01:51.991Z,33.50
2023-08-13T01:04:18.830Z,33.67
2023-08-13T01:07:12.978Z,33.70
2023-08-13T01:09:57.494Z,33.05
2023-08-13T01:12:38.703Z,33.38
2023-08-13T01:15:12.679Z,33.63
2023-08-13T01:17:40.834Z,34.50
2023-08-13T01:20:10.542Z,33.72
2023-08-13T01:22:46.698Z,33.78
2023-08-13T01:25:14.594Z,33.35
2023-08-13T01:27:57.907Z,33.47
2023-08-13T01:30:34.205Z,34.38
2023-08-13T01:33:04.478Z,34.40
2023-08-13T01:38:00.827Z,33.60
2023-08-13T01:40:27.961Z,35.00
2023-08-13T01:42:54.597Z,34.60
2023-08-13T01:45:21.150Z,34.33
2023-08-13T01:47:48.477Z,34.45
2023-08-13T01:50:15.096Z,34.08
2023-08-13T01:52:41.529Z,33.30
2023-08-13T01:55:08.787Z,33.25
2023-08-13T01:57:35.630Z,34.03
2023-08-13T02:00:02.123Z,34.00
2023-08-13T02:02:28.758Z,34.55
2023-08-13T02:04:55.352Z,34.78
2023-08-13T02:07:21.837Z,34.78
2023-08-13T02:09:48.334Z,34.42
2023-08-13T02:12:14.867Z,34.38
2023-08-13T02:14:41.714Z,34.35
2023-08-13T02:17:13.756Z,33.90
2023-08-13T02:19:41.254Z,34.03
2023-08-13T02:22:08.657Z,33.17
2023-08-13T02:24:35.132Z,33.83
2023-08-13T02:27:01.609Z,34.70
2023-08-13T02:29:28.274Z,33.95
2023-08-13T02:31:54.820Z,33.65
2023-08-13T02:34:23.523Z,32.95
2023-08-13T02:36:50.153Z,33.67
2023-08-13T02:39:16.575Z,32.45
2023-08-13T02:41:43.040Z,32.22
2023-08-13T02:44:09.554Z,32.17
2023-08-13T02:46:36.109Z,33.05
2023-08-13T02:49:02.650Z,32.53
2023-08-13T02:51:29.122Z,32.95
2023-08-13T02:53:55.708Z,31.77
2023-08-13T02:56:22.185Z,32.10
2023-08-13T02:58:48.676Z,32.17
2023-08-13T03:01:15.235Z,31.23
2023-08-13T03:03:52.084Z,31.58
2023-08-13T03:06:23.584Z,31.75
2023-08-13T03:08:50.161Z,32.30
2023-08-13T03:11:16.736Z,32.38
2023-08-13T03:13:43.635Z,32.40
2023-08-13T03:16:10.294Z,31.92
2023-08-13T03:18:37.105Z,31.33
2023-08-13T03:21:03.617Z,32.47
2023-08-13T03:23:30.475Z,32.95
2023-08-13T03:25:57.131Z,33.03
2023-08-13T03:28:23.966Z,33.92
2023-08-13T03:30:50.443Z,33.25
2023-08-13T03:33:16.897Z,32.63
2023-08-13T03:35:43.975Z,32.78
2023-08-13T03:38:10.656Z,32.20
2023-08-13T03:40:40.960Z,32.30
2023-08-13T03:43:07.512Z,32.15
2023-08-13T03:45:34.048Z,32.53
2023-08-13T03:48:00.643Z,32.17
2023-08-13T03:50:27.186Z,32.42
2023-08-13T03:52:53.644Z,32.75
2023-08-13T03:55:20.088Z,32.78
2023-08-13T03:57:46.577Z,32.90
2023-08-13T04:00:13.619Z,33.25
2023-08-13T04:02:40.721Z,32.33
2023-08-13T04:05:07.992Z,33.10
2023-08-13T04:07:34.467Z,33.58
2023-08-13T04:10:00.948Z,33.25
2023-08-13T04:12:27.433Z,32.55
2023-08-13T04:14:53.859Z,32.92
2023-08-13T04:17:20.321Z,32.17
2023-08-13T04:19:46.782Z,32.35
2023-08-13T04:22:13.969Z,32.50
2023-08-13T04:24:41.076Z,32.35
2023-08-13T04:27:07.600Z,32.28
2023-08-13T04:29:34.115Z,32.63
2023-08-13T04:32:00.603Z,32.80
2023-08-13T04:34:27.173Z,32.63
2023-08-13T04:36:53.632Z,31.48
2023-08-13T04:39:20.118Z,31.27
2023-08-13T04:41:46.625Z,31.25
2023-08-13T04:44:13.096Z,30.88
2023-08-13T04:46:39.771Z,30.60
2023-08-13T04:49:06.563Z,32.00
2023-08-13T04:51:32.995Z,30.58
2023-08-13T04:53:59.468Z,30.20
2023-08-13T04:56:25.954Z,30.50
2023-08-13T04:58:52.535Z,28.58
2023-08-13T05:01:19.120Z,28.00
2023-08-13T05:03:45.908Z,27.33
2023-08-13T05:06:12.447Z,26.00
2023-08-13T05:08:38.999Z,26.67
2023-08-13T05:11:05.902Z,24.15
2023-08-13T05:13:32.390Z,23.30
2023-08-13T05:15:58.917Z,22.98
2023-08-13T05:19:11.901Z,22.73
2023-08-13T05:21:43.565Z,20.90
2023-08-13T05:24:10.061Z,19.40
2023-08-13T05:26:36.673Z,18.40
2023-08-13T05:29:04.271Z,17.50
2023-08-13T05:31:31.326Z,17.08
2023-08-13T05:34:01.020Z,16.73
2023-08-13T05:36:27.668Z,15.82
2023-08-13T05:38:54.234Z,14.10
2023-08-13T05:41:20.791Z,15.10
2023-08-13T05:43:47.289Z,14.10
2023-08-13T05:46:13.946Z,13.10
2023-08-13T05:48:40.759Z,13.90
2023-08-13T05:51:07.261Z,12.57
2023-08-13T05:53:33.729Z,12.98
2023-08-13T05:56:01.263Z,12.23
2023-08-13T05:58:27.776Z,12.18
2023-08-13T06:00:54.249Z,12.23
2023-08-13T06:03:20.857Z,12.15
2023-08-13T06:05:48.624Z,11.60
2023-08-13T06:08:15.235Z,11.77
2023-08-13T06:10:41.815Z,11.93
2023-08-13T06:13:08.313Z,11.80
2023-08-13T06:15:34.778Z,11.13
2023-08-13T06:18:01.344Z,11.27
2023-08-13T06:20:27.973Z,11.18
2023-08-13T06:22:54.660Z,12.05
2023-08-13T06:25:21.267Z,11.65
2023-08-13T06:27:47.742Z,11.93
2023-08-13T06:30:14.273Z,11.23
2023-08-13T06:32:41.066Z,11.93
2023-08-13T06:35:07.905Z,11.77
2023-08-13T06:37:38.982Z,12.05
2023-08-13T06:40:13.777Z,12.53
2023-08-13T06:42:40.229Z,11.43
2023-08-13T06:45:07.551Z,11.73
2023-08-13T06:47:34.109Z,11.73
2023-08-13T06:50:00.611Z,11.40
2023-08-13T06:52:27.238Z,12.77
2023-08-13T06:54:53.736Z,12.80
2023-08-13T06:57:20.199Z,12.40
2023-08-13T06:59:46.760Z,11.60
2023-08-13T07:02:13.467Z,12.25
2023-08-13T07:04:40.277Z,13.15
2023-08-13T07:07:07.229Z,12.35
2023-08-13T07:09:35.066Z,13.07
2023-08-13T07:12:02.075Z,12.35
2023-08-13T07:14:28.643Z,13.20
2023-08-13T07:16:55.060Z,13.18
2023-08-13T07:19:21.679Z,12.63
2023-08-13T07:21:48.140Z,13.00
2023-08-13T07:24:14.678Z,12.77
2023-08-13T07:26:41.186Z,12.70
2023-08-13T07:29:08.662Z,12.50
2023-08-13T07:31:38.979Z,11.93
2023-08-13T07:34:05.946Z,12.60
2023-08-13T07:36:32.779Z,12.23
2023-08-13T07:38:59.380Z,12.02
2023-08-13T07:41:26.209Z,13.57
2023-08-13T07:43:53.304Z,12.60
2023-08-13T07:46:20.381Z,12.00
2023-08-13T07:48:46.936Z,11.95
2023-08-13T07:51:13.428Z,11.27
2023-08-13T07:53:39.947Z,12.52
2023-08-13T07:56:06.533Z,12.15
2023-08-13T07:58:33.146Z,13.02
2023-08-13T08:00:59.683Z,12.60
2023-08-13T08:03:26.354Z,11.95
2023-08-13T08:05:54.056Z,12.93
2023-08-13T08:08:20.594Z,12.68
2023-08-13T08:10:47.070Z,13.10
2023-08-13T08:13:13.852Z,12.32
2023-08-13T08:15:40.701Z,11.98
2023-08-13T08:18:07.695Z,12.10
2023-08-13T08:20:34.397Z,11.13
2023-08-13T08:23:00.973Z,11.95
2023-08-13T08:25:27.796Z,12.43
2023-08-13T08:27:54.558Z,11.55
2023-08-13T08:30:21.299Z,12.18
2023-08-13T08:32:48.112Z,11.35
2023-08-13T08:35:15.256Z,11.40
2023-08-13T08:37:41.789Z,11.80
2023-08-13T08:40:08.823Z,11.23
2023-08-13T08:42:37.797Z,11.13
2023-08-13T08:45:05.664Z,11.48
2023-08-13T08:47:34.698Z,11.30
2023-08-13T08:50:05.092Z,11.50
2023-08-13T08:52:35.453Z,11.32
2023-08-13T08:55:04.020Z,13.75
2023-08-13T08:57:30.551Z,13.98
2023-08-13T08:59:57.122Z,13.45
2023-08-13T09:02:23.968Z,13.95
2023-08-13T09:04:50.598Z,13.00
2023-08-13T09:07:17.092Z,13.25
2023-08-13T09:09:45.460Z,13.20
2023-08-13T09:12:11.998Z,13.18
2023-08-13T09:14:38.600Z,12.80
2023-08-13T09:17:05.221Z,12.95
2023-08-13T09:19:33.446Z,12.65
2023-08-13T09:22:04.572Z,12.23
2023-08-13T09:24:34.013Z,15.07
2023-08-13T09:27:01.810Z,13.27
2023-08-13T09:29:30.468Z,13.52
2023-08-13T09:32:00.886Z,12.43
2023-08-13T09:34:28.765Z,12.50
2023-08-13T09:36:56.817Z,14.00
2023-08-13T09:39:24.829Z,12.43
2023-08-13T09:41:52.688Z,12.75
2023-08-13T09:44:21.334Z,13.90
2023-08-13T09:47:01.989Z,14.68
2023-08-13T09:49:31.603Z,13.10
2023-08-13T09:54:37.847Z,13.23
2023-08-13T09:57:07.962Z,12.05
2023-08-13T09:59:36.061Z,13.35
2023-08-13T10:02:07.704Z,12.43
2023-08-13T10:04:39.229Z,10.20
2023-08-13T10:07:06.823Z,11.80
2023-08-13T10:09:34.819Z,11.88
2023-08-13T10:12:02.508Z,12.20
2023-08-13T10:14:29.940Z,12.48
2023-08-13T10:16:56.560Z,11.93
2023-08-13T10:19:35.524Z,10.10
2023-08-13T10:22:02.603Z,11.38
2023-08-13T10:24:30.361Z,9.88
2023-08-13T10:26:59.254Z,10.48
2023-08-13T10:29:35.006Z,11.07
2023-08-13T10:32:10.924Z,9.65
2023-08-13T10:34:41.032Z,10.13
2023-08-13T10:37:19.550Z,9.60
2023-08-13T10:39:48.076Z,10.25
2023-08-13T10:42:38.968Z,12.27
2023-08-13T10:45:10.979Z,11.60
2023-08-13T10:47:48.496Z,12.38
2023-08-13T10:50:26.902Z,10.95
2023-08-13T10:52:55.724Z,11.95
2023-08-13T10:55:25.938Z,10.80
2023-08-13T10:57:54.008Z,13.45
2023-08-13T11:00:25.466Z,12.25
2023-08-13T11:02:53.776Z,11.60
2023-08-13T11:05:22.200Z,10.75
2023-08-13T11:07:48.973Z,13.43
2023-08-13T11:10:20.355Z,11.43
2023-08-13T11:12:48.710Z,12.32
2023-08-13T11:15:16.622Z,11.30
2023-08-13T11:17:48.162Z,11.45
2023-08-13T11:20:18.367Z,11.05
2023-08-13T11:22:45.101Z,12.57
2023-08-13T11:25:12.057Z,12.60
2023-08-13T11:27:39.819Z,13.10
2023-08-13T11:30:09.464Z,11.70
2023-08-13T11:32:40.009Z,10.00
2023-08-13T11:35:10.749Z,12.80
2023-08-13T11:37:38.412Z,12.35
2023-08-13T11:40:07.446Z,10.98
2023-08-13T11:42:34.366Z,11.93
2023-08-13T11:45:04.428Z,12.25
2023-08-13T11:47:31.002Z,9.73
2023-08-13T11:50:00.111Z,12.60
2023-08-13T11:52:26.770Z,12.02
2023-08-13T11:54:53.525Z,11.25
2023-08-13T11:57:21.189Z,11.20
2023-08-13T11:59:49.947Z,12.93
2023-08-13T12:02:19.247Z,12.63
2023-08-13T12:04:48.204Z,11.15
2023-08-13T12:07:14.819Z,10.02
2023-08-13T12:09:41.337Z,12.15
2023-08-13T12:12:08.063Z,9.95
2023-08-13T12:14:42.721Z,9.32
2023-08-13T12:17:09.154Z,12.10
2023-08-13T12:19:35.640Z,9.07
2023-08-13T12:22:02.101Z,9.63
2023-08-13T12:24:28.647Z,9.73
2023-08-13T12:26:55.251Z,10.18
2023-08-13T12:29:21.769Z,10.20
2023-08-13T12:31:48.441Z,9.05
2023-08-13T12:34:14.866Z,9.88
2023-08-13T12:36:41.326Z,10.00
2023-08-13T12:39:07.888Z,9.80
2023-08-13T12:41:39.835Z,9.55
2023-08-13T12:44:08.333Z,12.10
2023-08-13T12:46:34.850Z,10.55
2023-08-13T12:49:01.392Z,10.00
2023-08-13T12:51:28.035Z,9.65
2023-08-13T12:53:54.472Z,9.73
2023-08-13T12:56:21.805Z,9.80
2023-08-13T12:58:49.510Z,9.77
2023-08-13T13:01:16.011Z,9.82
2023-08-13T13:03:42.553Z,9.35
2023-08-13T13:06:09.022Z,12.10
2023-08-13T13:08:35.466Z,11.20
2023-08-13T13:11:02.596Z,10.48
2023-08-13T13:13:29.537Z,10.68
2023-08-13T13:15:56.161Z,10.98
2023-08-13T13:18:22.805Z,9.35
2023-08-13T13:20:49.544Z,9.30
2023-08-13T13:23:16.017Z,12.20
2023-08-13T13:25:42.476Z,11.70
2023-08-13T13:28:09.928Z,11.68
2023-08-13T13:30:36.433Z,11.00
2023-08-13T13:33:03.444Z,9.45
2023-08-13T13:35:30.075Z,9.38
2023-08-13T13:37:57.447Z,9.20
2023-08-13T13:40:25.916Z,9.55
2023-08-13T13:42:53.185Z,10.70
2023-08-13T13:45:20.448Z,9.48
2023-08-13T13:47:47.329Z,11.80
2023-08-13T13:50:16.994Z,10.80
2023-08-13T13:55:10.401Z,11.25
2023-08-13T13:57:37.318Z,10.82
2023-08-13T14:00:07.908Z,10.70
2023-08-13T14:02:35.197Z,11.73
2023-08-13T14:05:02.385Z,11.82
2023-08-13T14:07:28.862Z,10.98
2023-08-13T14:09:55.360Z,8.85
2023-08-13T14:12:22.276Z,11.27
2023-08-13T14:14:48.742Z,9.82
2023-08-13T14:17:15.265Z,11.15
2023-08-13T14:19:43.098Z,9.45
2023-08-13T14:22:09.924Z,9.18
2023-08-13T14:24:36.845Z,10.93
2023-08-13T14:27:03.296Z,11.60
2023-08-13T14:29:30.379Z,12.18
2023-08-13T14:31:57.005Z,11.90
2023-08-13T14:34:23.582Z,11.00
2023-08-13T14:36:50.038Z,11.68
2023-08-13T14:39:16.857Z,11.68
2023-08-13T14:41:43.389Z,9.65
2023-08-13T14:44:10.080Z,10.00
2023-08-13T14:46:36.723Z,11.60
2023-08-13T14:49:03.301Z,11.45
2023-08-13T14:51:30.105Z,11.35
2023-08-13T14:53:57.050Z,9.25
2023-08-13T14:56:23.749Z,9.90
2023-08-13T14:58:50.965Z,11.25
2023-08-13T15:01:17.687Z,11.50
2023-08-13T15:03:44.366Z,11.05
2023-08-13T15:06:11.083Z,11.15
2023-08-13T15:08:37.827Z,10.70
2023-08-13T15:11:04.429Z,11.57
2023-08-13T15:13:31.037Z,9.45
2023-08-13T15:15:57.796Z,8.95
2023-08-13T15:18:24.410Z,11.98
2023-08-13T15:20:51.354Z,9.15
2023-08-13T15:23:19.114Z,9.27
2023-08-13T15:28:19.986Z,11.55
2023-08-13T15:30:46.521Z,11.27
2023-08-13T15:33:13.118Z,9.80
2023-08-13T15:35:51.562Z,9.68
2023-08-13T15:38:20.354Z,9.48
2023-08-13T15:40:49.001Z,9.90
2023-08-13T15:43:15.495Z,9.90
2023-08-13T15:45:41.991Z,9.60
2023-08-13T15:48:08.538Z,10.02
2023-08-13T15:50:35.654Z,10.20
2023-08-13T15:53:03.323Z,10.05
2023-08-13T15:55:30.059Z,10.45
2023-08-13T15:57:56.554Z,9.90
2023-08-13T16:00:23.169Z,9.75
2023-08-13T16:02:50.818Z,9.90
2023-08-13T16:05:17.548Z,10.25
2023-08-13T16:07:45.529Z,8.95
2023-08-13T16:10:12.025Z,9.20
2023-08-13T16:12:38.503Z,9.50
2023-08-13T16:15:10.996Z,10.35
2023-08-13T16:17:41.147Z,9.63
2023-08-13T16:20:12.657Z,10.32
2023-08-13T16:22:42.268Z,9.93
2023-08-13T16:25:09.931Z,9.65
2023-08-13T16:27:36.757Z,9.48
2023-08-13T16:30:04.789Z,8.70
2023-08-13T16:32:31.564Z,9.07
2023-08-13T16:34:58.120Z,8.75
2023-08-13T16:37:24.566Z,9.40
2023-08-13T16:39:51.044Z,9.93
2023-08-13T16:42:18.109Z,9.90
2023-08-13T16:44:44.891Z,9.48
2023-08-13T16:47:11.374Z,9.00
2023-08-13T16:49:37.957Z,9.60
2023-08-13T16:52:04.698Z,9.40
2023-08-13T16:54:31.092Z,9.43
2023-08-13T16:56:57.619Z,9.27
2023-08-13T16:59:24.162Z,9.30
2023-08-13T17:01:50.650Z,9.55
2023-08-13T17:04:17.158Z,9.70
2023-08-13T17:06:43.847Z,9.20
2023-08-13T17:09:10.543Z,9.07
2023-08-13T17:11:36.980Z,9.38
2023-08-13T17:14:03.545Z,9.45
2023-08-13T17:16:30.119Z,8.90
2023-08-13T17:18:56.654Z,8.73
2023-08-13T17:21:23.123Z,9.40
2023-08-13T17:23:49.539Z,8.65
2023-08-13T17:26:16.039Z,8.90
2023-08-13T17:28:42.759Z,8.77
2023-08-13T17:31:09.253Z,9.07
2023-08-13T17:33:35.760Z,9.07
2023-08-13T17:36:02.289Z,8.77
2023-08-13T17:38:28.760Z,8.55
2023-08-13T17:40:55.294Z,8.70
2023-08-13T17:43:21.876Z,8.43
2023-08-13T17:45:48.428Z,9.40
2023-08-13T17:48:16.496Z,8.95
2023-08-13T17:50:44.475Z,9.60
2023-08-13T17:53:12.641Z,9.30
2023-08-13T17:55:39.092Z,8.93
2023-08-13T17:58:05.563Z,9.77
2023-08-13T18:00:32.064Z,9.38
2023-08-13T18:02:58.655Z,9.55
2023-08-13T18:05:25.561Z,9.20
2023-08-13T18:07:58.370Z,9.63
2023-08-13T18:10:31.025Z,9.20
2023-08-13T18:12:57.561Z,9.57
2023-08-13T18:15:24.513Z,10.23
2023-08-13T18:17:51.284Z,9.65
2023-08-13T18:20:18.268Z,9.80
2023-08-13T18:22:45.041Z,10.80
2023-08-13T18:25:12.748Z,9.93
2023-08-13T18:27:41.081Z,9.88
2023-08-13T18:30:08.227Z,10.32
2023-08-13T18:32:34.828Z,11.30
2023-08-13T18:35:01.429Z,11.57
2023-08-13T18:37:27.921Z,21.00
2023-08-13T18:39:58.078Z,17.55
2023-08-13T18:42:24.641Z,14.60
2023-08-13T18:44:51.321Z,12.75
2023-08-13T18:47:17.847Z,12.73
2023-08-13T18:49:44.368Z,13.10
2023-08-13T18:52:10.995Z,13.30
2023-08-13T18:54:37.463Z,12.50
2023-08-13T18:57:04.076Z,12.10
2023-08-13T18:59:30.854Z,10.32
2023-08-13T19:01:57.601Z,9.98
2023-08-13T19:04:24.131Z,9.95
2023-08-13T19:06:50.642Z,8.90
2023-08-13T19:09:17.087Z,9.07
2023-08-13T19:11:43.684Z,12.23
2023-08-13T19:14:11.489Z,12.35
2023-08-13T19:16:38.650Z,12.15
2023-08-13T19:19:05.931Z,11.80
2023-08-13T19:21:32.627Z,12.20
2023-08-13T19:23:59.098Z,11.82
2023-08-13T19:26:26.091Z,12.30
2023-08-13T19:28:53.222Z,11.70
2023-08-13T19:31:19.762Z,11.63
2023-08-13T19:33:46.216Z,12.55
2023-08-13T19:36:13.761Z,11.88
2023-08-13T19:38:40.731Z,12.98
2023-08-13T19:41:07.364Z,13.00
2023-08-13T19:43:34.048Z,12.50
2023-08-13T19:46:00.825Z,12.65
2023-08-13T19:48:27.316Z,13.60
2023-08-13T19:50:54.456Z,12.40
2023-08-13T19:53:21.680Z,12.20
2023-08-13T19:55:50.497Z,12.07
2023-08-13T19:58:17.859Z,12.52
2023-08-13T20:00:44.526Z,12.07
2023-08-13T20:03:11.594Z,12.45
2023-08-13T20:05:38.167Z,12.93
2023-08-13T20:08:05.211Z,13.15
2023-08-13T20:10:32.941Z,13.50
2023-08-13T20:12:59.929Z,14.60
2023-08-13T20:15:27.096Z,13.35
2023-08-13T20:17:56.927Z,14.45
2023-08-13T20:20:23.433Z,13.88
2023-08-13T20:22:49.975Z,14.10
2023-08-13T20:25:17.048Z,13.68
2023-08-13T20:27:43.490Z,14.25
2023-08-13T20:30:10.368Z,13.85
2023-08-13T20:32:37.322Z,15.70
2023-08-13T20:35:04.514Z,14.27
2023-08-13T20:37:31.490Z,13.95
2023-08-13T20:39:58.788Z,13.65
2023-08-13T20:42:26.249Z,13.68
2023-08-13T20:44:52.894Z,14.38
2023-08-13T20:47:19.370Z,13.98
2023-08-13T20:49:46.047Z,13.82
2023-08-13T20:52:12.620Z,13.48
2023-08-13T20:54:39.076Z,13.75
2023-08-13T20:57:05.806Z,13.40
2023-08-13T20:59:32.275Z,14.15
2023-08-13T21:01:58.721Z,13.43
2023-08-13T21:04:25.213Z,14.05
2023-08-13T21:06:51.728Z,13.85
2023-08-13T21:09:18.274Z,13.73
2023-08-13T21:11:45.010Z,13.68
2023-08-13T21:14:11.501Z,14.82
2023-08-13T21:16:37.987Z,14.25
2023-08-13T21:19:04.452Z,14.52
2023-08-13T21:21:30.918Z,14.25
2023-08-13T21:23:57.440Z,14.35
2023-08-13T21:26:25.169Z,15.05
2023-08-13T21:28:51.991Z,14.30
2023-08-13T21:31:18.615Z,14.32
2023-08-13T21:33:45.069Z,14.20
2023-08-13T21:36:11.581Z,14.27
2023-08-13T21:38:38.066Z,15.07
2023-08-13T21:41:04.861Z,15.18
2023-08-13T21:43:31.326Z,15.02
2023-08-13T21:45:57.787Z,15.23
2023-08-13T21:48:24.254Z,15.02
2023-08-13T21:50:50.704Z,15.60
2023-08-13T21:53:17.216Z,15.82
2023-08-13T21:55:43.851Z,15.35
2023-08-13T21:58:10.347Z,15.23
2023-08-13T22:00:36.831Z,14.98
2023-08-13T22:03:04.230Z,14.23
2023-08-13T22:05:31.797Z,14.68
2023-08-13T22:07:58.235Z,14.98
2023-08-13T22:10:24.689Z,14.77
2023-08-13T22:12:51.128Z,15.05
2023-08-13T22:15:17.605Z,15.48
2023-08-13T22:17:44.094Z,15.05
2023-08-13T22:20:10.778Z,15.63
2023-08-13T22:22:37.276Z,16.70
2023-08-13T22:25:05.243Z,16.00
2023-08-13T22:27:31.829Z,16.08
2023-08-13T22:29:58.386Z,16.08
2023-08-13T22:32:25.103Z,15.85
2023-08-13T22:34:52.194Z,16.50
2023-08-13T22:37:18.731Z,16.13
2023-08-13T22:39:45.170Z,16.27
2023-08-13T22:42:11.652Z,17.02
2023-08-13T22:44:38.140Z,17.13
2023-08-13T22:47:04.844Z,17.80
2023-08-13T22:49:32.609Z,17.15
2023-08-13T22:51:59.205Z,17.15
2023-08-13T22:54:25.960Z,17.75
2023-08-13T22:56:52.563Z,17.08
2023-08-13T22:59:19.079Z,17.95
2023-08-13T23:01:45.649Z,17.13
2023-08-13T23:04:12.662Z,16.55
2023-08-13T23:06:39.309Z,17.25
2023-08-13T23:09:07.423Z,17.08
2023-08-13T23:11:33.944Z,16.20
2023-08-13T23:14:00.591Z,17.38
2023-08-13T23:16:27.240Z,16.38
2023-08-13T23:18:53.689Z,16.55
2023-08-13T23:21:20.144Z,17.00
2023-08-13T23:23:46.606Z,16.08
2023-08-13T23:26:13.132Z,16.20
2023-08-13T23:28:40.926Z,16.88
2023-08-13T23:31:07.464Z,16.60
2023-08-13T23:33:33.993Z,16.75
2023-08-13T23:36:00.427Z,17.08
2023-08-13T23:38:26.924Z,16.52
2023-08-13T23:40:53.406Z,16.48
2023-08-13T23:43:19.851Z,17.30
2023-08-13T23:45:48.531Z,16.98
2023-08-13T23:48:15.239Z,17.17
2023-08-13T23:50:54.060Z,16.63
2023-08-13T23:55:48.523Z,16.88
2023-08-13T23:58:15.064Z,17.52
